createdAt,value
2023-01-28T00:01:18.681Z,100670.50
2023-01-28T00:03:50.788Z,100667.88
2023-01-28T00:06:20.112Z,100673.91
2023-01-28T00:08:49.495Z,100660.16
2023-01-28T00:11:19.087Z,100663.59
2023-01-28T00:13:47.559Z,100659.28
2023-01-28T00:16:15.999Z,100664.47
2023-01-28T00:18:44.374Z,100664.47
2023-01-28T00:21:14.779Z,100665.31
2023-01-28T00:23:48.408Z,100661.84
2023-01-28T00:26:18.748Z,100665.28
2023-01-28T00:28:48.289Z,100667.00
2023-01-28T00:31:18.412Z,100659.28
2023-01-28T00:33:48.016Z,100659.25
2023-01-28T00:36:17.324Z,100660.97
2023-01-28T00:38:51.385Z,100667.84
2023-01-28T00:41:23.475Z,100667.84
2023-01-28T00:43:53.317Z,100666.13
2023-01-28T00:46:23.923Z,100663.53
2023-01-28T00:48:52.752Z,100662.69
2023-01-28T00:51:22.571Z,100656.66
2023-01-28T00:53:51.980Z,100656.66
2023-01-28T00:56:21.951Z,100657.53
2023-01-28T00:58:50.942Z,100654.91
2023-01-28T01:01:22.365Z,100657.50
2023-01-28T01:03:57.748Z,100651.44
2023-01-28T01:06:26.620Z,100658.28
2023-01-28T01:08:54.849Z,100654.84
2023-01-28T01:11:24.932Z,100663.44
2023-01-28T01:13:56.914Z,100658.28
2023-01-28T01:16:27.672Z,100660.84
2023-01-28T01:18:57.610Z,100666.00
2023-01-28T01:21:28.811Z,100659.97
2023-01-28T01:23:57.694Z,100661.69
2023-01-28T01:26:28.069Z,100659.97
2023-01-28T01:28:58.963Z,100664.28
2023-01-28T01:31:27.334Z,100656.53
2023-01-28T01:33:55.628Z,100658.22
2023-01-28T01:36:24.962Z,100657.34
2023-01-28T01:38:56.006Z,100659.06
2023-01-28T01:41:29.365Z,100662.50
2023-01-28T01:43:59.792Z,100657.34
2023-01-28T01:46:36.527Z,100659.97
2023-01-28T01:49:13.580Z,100668.56
2023-01-28T01:51:44.646Z,100665.97
2023-01-28T01:54:13.283Z,100672.84
2023-01-28T01:56:44.913Z,100665.97
2023-01-28T01:59:16.743Z,100662.53
2023-01-28T02:01:46.865Z,100665.13
2023-01-28T02:04:22.896Z,100666.84
2023-01-28T02:06:51.636Z,100661.69
2023-01-28T02:09:26.586Z,100667.75
2023-01-28T02:11:57.822Z,100662.59
2023-01-28T02:14:31.722Z,100664.31
2023-01-28T02:17:01.865Z,100653.16
2023-01-28T02:19:37.910Z,100650.56
2023-01-28T02:22:51.929Z,100656.59
2023-01-28T02:25:41.610Z,100658.28
2023-01-28T02:28:18.761Z,100654.88
2023-01-28T02:30:54.412Z,100652.28
2023-01-28T02:33:30.700Z,100656.59
2023-01-28T02:36:06.363Z,100649.69
2023-01-28T02:38:42.898Z,100645.41
2023-01-28T02:41:17.851Z,100647.09
2023-01-28T02:43:48.668Z,100663.47
2023-01-28T02:46:41.356Z,100654.84
2023-01-28T02:49:14.743Z,100659.16
2023-01-28T02:52:04.566Z,100658.28
2023-01-28T02:54:39.551Z,100660.88
2023-01-28T02:57:20.494Z,100669.47
2023-01-28T02:59:55.777Z,100670.34
2023-01-28T03:02:32.140Z,100678.09
2023-01-28T03:05:05.125Z,100676.38
2023-01-28T03:07:37.741Z,100678.94
2023-01-28T03:10:10.966Z,100683.28
2023-01-28T03:13:01.104Z,100678.97
2023-01-28T03:15:54.019Z,100684.97
2023-01-28T03:18:44.353Z,100672.09
2023-01-28T03:21:33.728Z,100672.94
2023-01-28T03:24:25.582Z,100672.06
2023-01-28T03:27:20.919Z,100673.81
2023-01-28T03:30:18.045Z,100674.66
2023-01-28T03:33:05.489Z,100666.91
2023-01-28T03:35:54.383Z,100665.25
2023-01-28T03:38:24.117Z,100671.22
2023-01-28T03:40:57.211Z,100672.97
2023-01-28T03:43:25.932Z,100673.81
2023-01-28T03:45:55.697Z,100674.66
2023-01-28T03:48:28.458Z,100672.97
2023-01-28T03:51:00.484Z,100680.72
2023-01-28T03:53:30.931Z,100672.09
2023-01-28T03:55:59.864Z,100672.94
2023-01-28T03:58:46.582Z,100671.25
2023-01-28T04:01:16.212Z,100678.13
2023-01-28T04:03:46.491Z,100670.41
2023-01-28T04:06:18.527Z,100671.22
2023-01-28T04:09:00.172Z,100672.09
2023-01-28T04:11:35.025Z,100675.53
2023-01-28T04:14:06.099Z,100674.66
2023-01-28T04:16:43.768Z,100675.53
2023-01-28T04:19:14.669Z,100669.50
2023-01-28T04:21:43.929Z,100665.22
2023-01-28T04:24:12.694Z,100669.53
2023-01-28T04:26:41.382Z,100671.25
2023-01-28T04:29:10.157Z,100672.09
2023-01-28T04:31:39.571Z,100673.84
2023-01-28T04:34:21.887Z,100672.09
2023-01-28T04:37:22.687Z,100678.16
2023-01-28T04:40:26.287Z,100671.25
2023-01-28T04:42:58.728Z,100672.09
2023-01-28T04:45:39.268Z,100665.25
2023-01-28T04:48:23.160Z,100663.53
2023-01-28T04:51:15.815Z,100665.28
2023-01-28T04:53:57.033Z,100666.97
2023-01-28T04:56:28.488Z,100660.13
2023-01-28T04:58:57.308Z,100675.56
2023-01-28T05:01:26.110Z,100668.69
2023-01-28T05:03:55.861Z,100668.69
2023-01-28T05:06:28.901Z,100672.13
2023-01-28T05:09:04.502Z,100677.28
2023-01-28T05:11:33.204Z,100684.16
2023-01-28T05:14:05.315Z,100691.91
2023-01-28T05:16:42.648Z,100689.34
2023-01-28T05:19:11.114Z,100691.91
2023-01-28T05:21:46.872Z,100695.38
2023-01-28T05:24:33.418Z,100693.63
2023-01-28T05:27:03.119Z,100701.34
2023-01-28T05:29:31.782Z,100703.91
2023-01-28T05:32:01.298Z,100698.78
2023-01-28T05:34:30.976Z,100702.22
2023-01-28T05:37:03.713Z,100702.22
2023-01-28T05:39:34.516Z,100701.38
2023-01-28T05:42:03.032Z,100703.97
2023-01-28T05:44:33.847Z,100701.38
2023-01-28T05:47:28.648Z,100708.28
2023-01-28T05:50:17.588Z,100713.44
2023-01-28T05:53:08.072Z,100719.44
2023-01-28T05:55:38.199Z,100717.75
2023-01-28T05:58:07.844Z,100718.56
2023-01-28T06:00:37.510Z,100717.72
2023-01-28T06:03:06.975Z,100719.44
2023-01-28T06:05:37.314Z,100711.69
2023-01-28T06:08:07.556Z,100715.09
2023-01-28T06:10:36.183Z,100718.56
2023-01-28T06:13:04.895Z,100728.88
2023-01-28T06:15:42.374Z,100727.16
2023-01-28T06:18:41.429Z,100727.16
2023-01-28T06:21:10.621Z,100729.75
2023-01-28T06:23:40.184Z,100725.44
2023-01-28T06:26:10.478Z,100727.16
2023-01-28T06:28:41.888Z,100725.47
2023-01-28T06:31:10.468Z,100721.19
2023-01-28T06:33:38.952Z,100728.03
2023-01-28T06:36:08.335Z,100716.00
2023-01-28T06:38:36.681Z,100722.88
2023-01-28T06:41:06.755Z,100735.75
2023-01-28T06:43:36.163Z,100734.91
2023-01-28T06:46:05.120Z,100733.22
2023-01-28T06:48:33.485Z,100742.66
2023-01-28T06:51:02.743Z,100746.13
2023-01-28T06:53:31.170Z,100747.84
2023-01-28T06:55:59.914Z,100744.41
2023-01-28T06:58:30.231Z,100747.00
2023-01-28T07:00:58.737Z,100752.16
2023-01-28T07:03:27.050Z,100752.13
2023-01-28T07:05:55.771Z,100756.47
2023-01-28T07:08:23.973Z,100754.72
2023-01-28T07:10:52.896Z,100757.31
2023-01-28T07:13:21.638Z,100760.78
2023-01-28T07:15:51.228Z,100756.47
2023-01-28T07:18:19.905Z,100753.03
2023-01-28T07:20:48.508Z,100764.22
2023-01-28T07:23:16.676Z,100769.41
2023-01-28T07:25:45.695Z,100769.41
2023-01-28T07:28:14.458Z,100770.25
2023-01-28T07:30:42.838Z,100774.59
2023-01-28T07:33:12.601Z,100772.00
2023-01-28T07:35:40.987Z,100767.69
2023-01-28T07:38:09.496Z,100772.00
2023-01-28T07:40:38.108Z,100770.25
2023-01-28T07:43:07.250Z,100778.00
2023-01-28T07:45:39.755Z,100775.44
2023-01-28T07:48:11.333Z,100772.88
2023-01-28T07:50:41.638Z,100778.00
2023-01-28T07:53:11.911Z,100773.72
2023-01-28T07:55:40.636Z,100766.88
2023-01-28T07:58:11.487Z,100769.47
2023-01-28T08:00:40.195Z,100770.31
2023-01-28T08:03:13.952Z,100768.59
2023-01-28T08:05:46.707Z,100776.34
2023-01-28T08:08:15.826Z,100770.31
2023-01-28T08:10:45.230Z,100775.47
2023-01-28T08:13:15.013Z,100780.63
2023-01-28T08:15:43.356Z,100783.22
2023-01-28T08:18:14.691Z,100782.38
2023-01-28T08:20:47.480Z,100779.81
2023-01-28T08:23:17.467Z,100781.53
2023-01-28T08:25:46.514Z,100780.69
2023-01-28T08:28:15.800Z,100780.69
2023-01-28T08:30:44.773Z,100783.28
2023-01-28T08:33:16.014Z,100784.09
2023-01-28T08:35:46.066Z,100782.38
2023-01-28T08:38:20.521Z,100784.09
2023-01-28T08:40:50.630Z,100784.09
2023-01-28T08:43:18.814Z,100774.66
2023-01-28T08:45:47.226Z,100774.72
2023-01-28T08:48:18.904Z,100779.00
2023-01-28T08:50:50.940Z,100781.59
2023-01-28T08:53:21.493Z,100781.63
2023-01-28T08:55:49.790Z,100779.91
2023-01-28T08:58:19.654Z,100783.34
2023-01-28T09:00:49.004Z,100782.47
2023-01-28T09:03:17.931Z,100779.06
2023-01-28T09:05:46.486Z,100785.94
2023-01-28T09:08:16.693Z,100778.22
2023-01-28T09:10:45.407Z,100792.84
2023-01-28T09:13:16.207Z,100798.03
2023-01-28T09:15:45.019Z,100789.41
2023-01-28T09:18:13.744Z,100792.88
2023-01-28T09:20:42.149Z,100784.28
2023-01-28T09:23:11.165Z,100785.19
2023-01-28T09:25:40.929Z,100788.59
2023-01-28T09:28:09.986Z,100780.84
2023-01-28T09:30:39.736Z,100792.94
2023-01-28T09:33:09.006Z,100796.38
2023-01-28T09:35:37.985Z,100794.69
2023-01-28T09:38:06.803Z,100792.94
2023-01-28T09:40:38.887Z,100790.38
2023-01-28T09:43:21.024Z,100792.97
2023-01-28T09:45:51.932Z,100786.94
2023-01-28T09:48:23.979Z,100786.94
2023-01-28T09:50:55.908Z,100784.38
2023-01-28T09:53:27.077Z,100786.13
2023-01-28T09:55:58.485Z,100780.09
2023-01-28T09:58:28.068Z,100786.13
2023-01-28T10:01:02.731Z,100792.16
2023-01-28T10:03:48.815Z,100784.41
2023-01-28T10:06:25.925Z,100786.13
2023-01-28T10:09:14.197Z,100794.75
2023-01-28T10:11:55.842Z,100785.28
2023-01-28T10:14:30.221Z,100788.72
2023-01-28T10:17:08.809Z,100788.72
2023-01-28T10:19:42.765Z,100787.00
2023-01-28T10:22:17.739Z,100787.84
2023-01-28T10:24:51.431Z,100781.84
2023-01-28T10:27:23.025Z,100788.69
2023-01-28T10:29:53.737Z,100787.84
2023-01-28T10:32:27.769Z,100776.66
2023-01-28T10:34:59.767Z,100773.22
2023-01-28T10:37:30.149Z,100774.09
2023-01-28T10:40:00.438Z,100771.50
2023-01-28T10:42:31.121Z,100774.97
2023-01-28T10:45:04.512Z,100777.56
2023-01-28T10:47:39.881Z,100773.22
2023-01-28T10:50:16.639Z,100773.22
2023-01-28T10:52:54.877Z,100768.09
2023-01-28T10:55:24.186Z,100770.69
2023-01-28T10:57:52.818Z,100772.41
2023-01-28T11:00:28.247Z,100768.97
2023-01-28T11:02:57.184Z,100760.38
2023-01-28T11:05:28.374Z,100747.47
2023-01-28T11:08:14.653Z,100751.78
2023-01-28T11:10:44.138Z,100755.22
2023-01-28T11:13:18.167Z,100747.44
2023-01-28T11:15:54.705Z,100738.84
2023-01-28T11:18:26.902Z,100743.16
2023-01-28T11:20:59.029Z,100746.59
2023-01-28T11:23:28.711Z,100740.59
2023-01-28T11:26:04.041Z,100739.69
2023-01-28T11:28:33.190Z,100743.16
2023-01-28T11:31:04.796Z,100752.63
2023-01-28T11:33:38.085Z,100744.84
2023-01-28T11:36:10.071Z,100742.28
2023-01-28T11:38:49.362Z,100741.44
2023-01-28T11:41:18.034Z,100737.97
2023-01-28T11:43:46.960Z,100735.41
2023-01-28T11:46:36.871Z,100727.66
2023-01-28T11:49:14.122Z,100720.78
2023-01-28T11:51:49.278Z,100731.94
2023-01-28T11:54:29.380Z,100721.63
2023-01-28T11:57:27.454Z,100731.94
2023-01-28T12:00:03.924Z,100723.34
2023-01-28T12:02:51.777Z,100716.44
2023-01-28T12:05:41.558Z,100725.06
2023-01-28T12:08:19.786Z,100716.44
2023-01-28T12:11:02.703Z,100720.78
2023-01-28T12:13:46.214Z,100719.91
2023-01-28T12:16:40.952Z,100719.91
2023-01-28T12:19:22.155Z,100720.75
2023-01-28T12:22:13.628Z,100718.16
2023-01-28T12:25:03.730Z,100728.50
2023-01-28T12:27:48.652Z,100723.34
2023-01-28T12:30:27.446Z,100725.03
2023-01-28T12:33:10.290Z,100724.19
2023-01-28T12:35:55.880Z,100722.47
2023-01-28T12:38:38.069Z,100727.63
2023-01-28T12:41:16.801Z,100724.16
2023-01-28T12:44:04.878Z,100713.84
2023-01-28T12:46:43.606Z,100713.84
2023-01-28T12:49:19.132Z,100717.28
2023-01-28T12:52:11.062Z,100715.56
2023-01-28T12:54:44.645Z,100714.69
2023-01-28T12:57:19.157Z,100715.53
2023-01-28T12:59:53.892Z,100722.47
2023-01-28T13:02:31.322Z,100715.53
2023-01-28T13:05:07.573Z,100715.56
2023-01-28T13:07:50.115Z,100721.59
2023-01-28T13:10:26.524Z,100719.88
2023-01-28T13:12:55.824Z,100716.41
2023-01-28T13:15:25.372Z,100712.97
2023-01-28T13:18:02.871Z,100702.63
2023-01-28T13:20:41.506Z,100711.25
2023-01-28T13:23:43.616Z,100712.97
2023-01-28T13:26:32.972Z,100722.44
2023-01-28T13:29:26.431Z,100725.06
2023-01-28T13:31:57.088Z,100710.41
2023-01-28T13:34:43.027Z,100720.75
2023-01-28T13:37:30.724Z,100725.91
2023-01-28T13:40:13.777Z,100726.75
2023-01-28T13:43:02.634Z,100717.28
2023-01-28T13:45:32.417Z,100721.59
2023-01-28T13:48:24.725Z,100725.91
2023-01-28T13:50:57.557Z,100713.84
2023-01-28T13:53:41.369Z,100725.06
2023-01-28T13:56:22.119Z,100731.09
2023-01-28T13:59:22.320Z,100728.47
2023-01-28T14:02:17.206Z,100731.03
2023-01-28T14:05:10.229Z,100737.94
2023-01-28T14:07:55.011Z,100743.09
2023-01-28T14:10:42.450Z,100748.25
2023-01-28T14:13:33.477Z,100742.22
2023-01-28T14:16:28.778Z,100745.66
2023-01-28T14:19:00.914Z,100738.78
2023-01-28T14:21:35.397Z,100744.81
2023-01-28T14:24:04.516Z,100746.53
2023-01-28T14:26:44.124Z,100735.34
2023-01-28T14:29:27.397Z,100749.13
2023-01-28T14:31:57.098Z,100743.97
2023-01-28T14:34:29.404Z,100739.66
2023-01-28T14:37:07.681Z,100737.94
2023-01-28T14:39:44.822Z,100740.53
2023-01-28T14:42:20.126Z,100732.78
2023-01-28T14:44:55.729Z,100737.94
2023-01-28T14:47:43.663Z,100743.97
2023-01-28T14:50:44.729Z,100747.38
2023-01-28T14:53:28.154Z,100742.22
2023-01-28T14:56:02.713Z,100738.78
2023-01-28T14:58:36.683Z,100740.50
2023-01-28T15:01:07.814Z,100744.81
2023-01-28T15:03:36.802Z,100741.38
2023-01-28T15:06:07.644Z,100745.66
2023-01-28T15:08:36.124Z,100736.19
2023-01-28T15:11:07.815Z,100742.22
2023-01-28T15:13:40.094Z,100738.75
2023-01-28T15:16:19.290Z,100745.69
2023-01-28T15:18:49.366Z,100744.78
2023-01-28T15:21:21.339Z,100752.53
2023-01-28T15:23:53.752Z,100746.50
2023-01-28T15:26:24.956Z,100749.94
2023-01-28T15:28:54.633Z,100757.69
2023-01-28T15:31:26.324Z,100761.13
2023-01-28T15:34:01.603Z,100762.84
2023-01-28T15:36:30.780Z,100760.25
2023-01-28T15:38:59.824Z,100758.53
2023-01-28T15:41:33.826Z,100759.41
2023-01-28T15:44:02.664Z,100760.28
2023-01-28T15:46:32.823Z,100767.16
2023-01-28T15:49:03.652Z,100773.16
2023-01-28T15:51:35.003Z,100767.97
2023-01-28T15:54:08.327Z,100774.88
2023-01-28T15:56:37.819Z,100784.38
2023-01-28T15:59:21.032Z,100778.34
2023-01-28T16:01:51.033Z,100773.16
2023-01-28T16:04:27.815Z,100780.88
2023-01-28T16:06:58.891Z,100784.31
2023-01-28T16:09:30.649Z,100786.91
2023-01-28T16:12:05.347Z,100780.88
2023-01-28T16:14:44.348Z,100784.31
2023-01-28T16:17:18.560Z,100779.16
2023-01-28T16:19:50.896Z,100772.28
2023-01-28T16:22:22.235Z,100780.88
2023-01-28T16:24:53.099Z,100780.06
2023-01-28T16:27:23.684Z,100780.88
2023-01-28T16:29:52.078Z,100774.84
2023-01-28T16:32:31.467Z,100768.81
2023-01-28T16:35:00.131Z,100770.53
2023-01-28T16:37:28.876Z,100780.84
2023-01-28T16:39:59.096Z,100784.28
2023-01-28T16:42:29.821Z,100784.31
2023-01-28T16:44:58.237Z,100782.59
2023-01-28T16:47:26.719Z,100786.03
2023-01-28T16:49:57.142Z,100791.19
2023-01-28T16:52:25.705Z,100797.22
2023-01-28T16:54:54.275Z,100795.50
2023-01-28T16:57:23.736Z,100793.75
2023-01-28T16:59:52.913Z,100801.50
2023-01-28T17:02:21.253Z,100798.94
2023-01-28T17:04:49.762Z,100810.97
2023-01-28T17:07:19.607Z,100807.50
2023-01-28T17:09:47.996Z,100807.50
2023-01-28T17:12:16.936Z,100809.25
2023-01-28T17:14:45.435Z,100810.13
2023-01-28T17:17:13.885Z,100811.00
2023-01-28T17:19:42.963Z,100799.81
2023-01-28T17:22:11.559Z,100804.09
2023-01-28T17:24:41.743Z,100811.84
2023-01-28T17:27:10.207Z,100808.38
2023-01-28T17:29:38.910Z,100815.25
2023-01-28T17:32:09.366Z,100803.19
2023-01-28T17:34:37.824Z,100811.81
2023-01-28T17:37:06.223Z,100815.25
2023-01-28T17:39:34.939Z,100810.94
2023-01-28T17:42:08.300Z,100816.16
2023-01-28T17:44:36.772Z,100812.72
2023-01-28T17:47:05.246Z,100810.97
2023-01-28T17:49:37.906Z,100816.13
2023-01-28T17:52:06.524Z,100817.81
2023-01-28T17:54:35.450Z,100818.69
2023-01-28T17:57:05.229Z,100819.56
2023-01-28T17:59:33.564Z,100820.41
2023-01-28T18:02:02.958Z,100816.94
2023-01-28T18:04:31.650Z,100827.28
2023-01-28T18:07:00.154Z,100823.84
2023-01-28T18:09:29.665Z,100828.16
2023-01-28T18:11:58.923Z,100824.72
2023-01-28T18:14:29.179Z,100827.28
2023-01-28T18:16:57.774Z,100825.56
2023-01-28T18:19:26.486Z,100833.31
2023-01-28T18:21:55.987Z,100839.31
2023-01-28T18:24:26.171Z,100835.88
2023-01-28T18:26:58.368Z,100831.59
2023-01-28T18:29:29.966Z,100828.97
2023-01-28T18:31:59.753Z,100829.81
2023-01-28T18:34:31.805Z,100832.41
2023-01-28T18:37:00.638Z,100829.78
2023-01-28T18:39:31.205Z,100838.41
2023-01-28T18:42:00.469Z,100828.94
2023-01-28T18:44:32.110Z,100823.75
2023-01-28T18:47:01.133Z,100824.59
2023-01-28T18:49:29.775Z,100823.75
2023-01-28T18:51:59.586Z,100833.22
2023-01-28T18:54:28.721Z,100835.78
2023-01-28T18:56:57.208Z,100840.06
2023-01-28T18:59:25.999Z,100842.69
2023-01-28T19:01:55.975Z,100846.13
2023-01-28T19:04:24.982Z,100848.69
2023-01-28T19:06:56.773Z,100853.88
2023-01-28T19:09:25.577Z,100863.31
2023-01-28T19:11:53.974Z,100844.38
2023-01-28T19:14:22.431Z,100848.69
2023-01-28T19:16:50.819Z,100839.19
2023-01-28T19:19:21.590Z,100845.22
2023-01-28T19:21:49.994Z,100846.06
2023-01-28T19:24:18.906Z,100856.38
2023-01-28T19:26:47.671Z,100852.06
2023-01-28T19:29:16.805Z,100842.63
2023-01-28T19:31:49.138Z,100856.38
2023-01-28T19:34:17.948Z,100850.34
2023-01-28T19:36:48.286Z,100846.94
2023-01-28T19:39:18.296Z,100858.13
2023-01-28T19:41:46.966Z,100852.06
2023-01-28T19:44:15.443Z,100858.13
2023-01-28T19:46:43.816Z,100858.97
2023-01-28T19:49:13.207Z,100860.69
2023-01-28T19:51:42.517Z,100859.84
2023-01-28T19:54:12.354Z,100857.25
2023-01-28T19:56:41.519Z,100842.63
2023-01-28T19:59:10.035Z,100858.09
2023-01-28T20:01:38.873Z,100861.53
2023-01-28T20:04:08.688Z,100871.00
2023-01-28T20:06:37.787Z,100862.38
2023-01-28T20:09:08.656Z,100866.66
2023-01-28T20:11:38.547Z,100883.00
2023-01-28T20:14:07.059Z,100883.00
2023-01-28T20:16:36.621Z,100878.69
2023-01-28T20:19:06.602Z,100877.00
2023-01-28T20:21:36.453Z,100880.44
2023-01-28T20:24:06.691Z,100882.16
2023-01-28T20:26:37.676Z,100882.16
2023-01-28T20:29:11.374Z,100884.75
2023-01-28T20:31:41.133Z,100883.00
2023-01-28T20:34:13.783Z,100880.44
2023-01-28T20:36:42.343Z,100894.22
2023-01-28T20:39:11.166Z,100888.22
2023-01-28T20:41:39.695Z,100883.94
2023-01-28T20:44:09.758Z,100879.63
2023-01-28T20:46:39.072Z,100883.91
2023-01-28T20:49:07.909Z,100881.28
2023-01-28T20:51:38.390Z,100888.19
2023-01-28T20:54:07.709Z,100895.94
2023-01-28T20:56:36.308Z,100888.13
2023-01-28T20:59:06.960Z,100879.53
2023-01-28T21:01:37.689Z,100884.69
2023-01-28T21:04:10.849Z,100892.41
2023-01-28T21:06:40.233Z,100893.31
2023-01-28T21:09:08.660Z,100894.13
2023-01-28T21:11:38.073Z,100905.34
2023-01-28T21:14:06.663Z,100904.47
2023-01-28T21:16:41.270Z,100896.75
2023-01-28T21:19:10.283Z,100898.50
2023-01-28T21:21:42.659Z,100901.09
2023-01-28T21:24:12.740Z,100893.34
2023-01-28T21:26:41.829Z,100894.22
2023-01-28T21:29:10.330Z,100897.66
2023-01-28T21:31:40.132Z,100897.66
2023-01-28T21:34:09.320Z,100906.25
2023-01-28T21:36:37.884Z,100907.91
2023-01-28T21:39:06.559Z,100909.59
2023-01-28T21:41:34.924Z,100909.59
2023-01-28T21:44:03.817Z,100907.00
2023-01-28T21:46:34.803Z,100898.41
2023-01-28T21:49:06.312Z,100890.69
2023-01-28T21:51:39.805Z,100912.19
2023-01-28T21:54:11.081Z,100911.28
2023-01-28T21:56:39.698Z,100911.28
2023-01-28T21:59:25.418Z,100900.94
2023-01-28T22:01:54.186Z,100911.25
2023-01-28T22:04:24.499Z,100905.25
2023-01-28T22:06:54.806Z,100898.34
2023-01-28T22:09:23.810Z,100897.50
2023-01-28T22:11:52.468Z,100900.94
2023-01-28T22:14:21.430Z,100900.06
2023-01-28T22:16:50.707Z,100887.19
2023-01-28T22:19:19.659Z,100893.19
2023-01-28T22:21:50.000Z,100902.63
2023-01-28T22:24:20.173Z,100891.44
2023-01-28T22:26:49.067Z,100895.78
2023-01-28T22:29:19.586Z,100900.94
2023-01-28T22:31:50.115Z,100896.59
2023-01-28T22:34:20.412Z,100886.28
2023-01-28T22:36:51.669Z,100879.38
2023-01-28T22:39:20.266Z,100875.97
2023-01-28T22:41:49.234Z,100878.53
2023-01-28T22:44:19.785Z,100870.81
2023-01-28T22:46:48.671Z,100869.03
2023-01-28T22:49:17.222Z,100870.75
2023-01-28T22:51:45.541Z,100863.84
2023-01-28T22:54:15.483Z,100867.28
2023-01-28T22:56:44.051Z,100860.41
2023-01-28T22:59:13.124Z,100859.56
2023-01-28T23:01:41.803Z,100860.41
2023-01-28T23:04:10.366Z,100861.25
2023-01-28T23:06:39.107Z,100855.22
2023-01-28T23:09:07.544Z,100866.41
2023-01-28T23:11:37.374Z,100850.03
2023-01-28T23:14:23.428Z,100845.75
2023-01-28T23:17:10.366Z,100858.63
2023-01-28T23:19:56.629Z,100863.72
2023-01-28T23:22:46.203Z,100868.88
2023-01-28T23:25:14.968Z,100881.78
2023-01-28T23:27:45.726Z,100875.75
2023-01-28T23:30:15.899Z,100869.72
2023-01-28T23:32:48.349Z,100877.47
2023-01-28T23:35:19.211Z,100875.75
2023-01-28T23:37:48.172Z,100876.59
2023-01-28T23:40:17.302Z,100874.88
2023-01-28T23:42:51.055Z,100875.72
2023-01-28T23:45:19.944Z,100886.88
2023-01-28T23:47:48.737Z,100881.72
2023-01-28T23:50:18.110Z,100886.84
2023-01-28T23:52:47.142Z,100881.66
2023-01-28T23:55:16.075Z,100884.25
2023-01-28T23:57:44.649Z,100894.56
